Time;durP1;ratioP1;P1;durP2;ratioP2;P2;SDS_P1;SDS_P2;PMS_P1;PMS_P2;Temp;Humidity;BMP_temperature;BMP_pressure;BME280_temperature;BME280_humidity;BME280_pressure;Samples;Min_cycle;Max_cycle;Signal;HPM_P1;HPM_P2
2023/01/04 00:00:48;;;;;;;12.75;6.72;;;;;;;4.08;67.43;100957.59;10339495;28;20077;-61
2023/01/04 00:05:50;;;;;;;14.10;6.95;;;;;;;3.95;67.55;100958.66;10338075;28;20056;-61
2023/01/04 00:10:52;;;;;;;12.35;7.30;;;;;;;3.94;68.00;100956.97;10340488;28;20053;-61
2023/01/04 00:15:53;;;;;;;18.02;8.38;;;;;;;3.95;68.09;100942.28;10335126;28;20509;-61
2023/01/04 00:21:04;;;;;;;13.60;8.13;;;;;;;4.07;68.19;100931.75;10339840;28;20046;-61
2023/01/04 00:26:14;;;;;;;16.02;8.95;;;;;;;4.19;68.37;100939.28;10341827;28;20490;-61
2023/01/04 00:31:16;;;;;;;15.23;8.43;;;;;;;4.33;67.93;100927.78;10334279;28;20046;-61
2023/01/04 00:36:18;;;;;;;12.80;8.35;;;;;;;4.46;67.51;100918.91;10339888;28;20488;-60
2023/01/04 00:41:19;;;;;;;15.20;8.63;;;;;;;4.59;67.22;100906.56;10341835;28;20462;-60
2023/01/04 00:46:41;;;;;;;;;;;;;;;4.37;67.75;100884.56;10340838;28;20053;-60
2023/01/04 00:51:43;;;;;;;18.10;8.90;;;;;;;4.71;66.87;100870.03;10340738;28;19928;-61
2023/01/04 00:56:45;;;;;;;14.48;8.63;;;;;;;4.84;66.63;100866.28;10341437;28;20052;-61
2023/01/04 01:01:47;;;;;;;17.38;8.75;;;;;;;4.83;66.54;100854.22;10344203;28;20057;-61
2023/01/04 01:06:50;;;;;;;12.70;8.20;;;;;;;4.87;66.64;100837.72;10341660;28;20057;-60
2023/01/04 01:11:53;;;;;;;14.35;8.00;;;;;;;4.89;66.43;100835.09;10341821;28;20053;-61
2023/01/04 01:16:54;;;;;;;15.00;7.93;;;;;;;4.73;66.79;100826.81;10338511;28;20068;-61
2023/01/04 01:21:59;;;;;;;13.23;7.50;;;;;;;4.75;66.95;100824.19;10340179;28;20104;-60
2023/01/04 01:27:00;;;;;;;17.08;7.90;;;;;;;4.70;66.90;100801.81;10341686;28;20584;-61
2023/01/04 01:32:02;;;;;;;13.27;7.22;;;;;;;4.64;67.26;100807.13;10339533;28;20061;-61
2023/01/04 01:37:04;;;;;;;15.57;6.93;;;;;;;4.60;67.44;100797.72;10339232;28;20129;-61
2023/01/04 01:42:22;;;;;;;14.13;6.53;;;;;;;4.80;67.56;100784.31;10338148;28;20522;-61
2023/01/04 01:47:38;;;;;;;16.23;7.75;;;;;;;4.91;67.21;100797.91;10340297;28;20141;-60
2023/01/04 01:52:40;;;;;;;11.25;6.85;;;;;;;4.93;67.13;100792.66;10339618;28;20050;-60
2023/01/04 01:57:45;;;;;;;11.82;5.78;;;;;;;5.08;67.38;100782.81;10339997;28;20486;-60
2023/01/04 02:02:55;;;;;;;8.45;4.35;;;;;;;5.36;66.99;100775.19;10338393;28;20057;-61
2023/01/04 02:07:59;;;;;;;;;;;;;;;5.31;67.19;100775.31;10330314;28;20058;-61
2023/01/04 02:13:07;;;;;;;7.70;4.13;;;;;;;5.77;66.18;100777.59;10338220;28;19925;-61
2023/01/04 02:18:14;;;;;;;12.18;4.97;;;;;;;5.98;65.87;100776.97;10341207;28;20054;-61
2023/01/04 02:23:28;;;;;;;9.35;4.35;;;;;;;6.05;64.90;100757.75;10339957;28;20593;-61
2023/01/04 02:28:48;;;;;;;9.05;4.28;;;;;;;6.26;64.53;100752.00;10340425;28;20057;-61
2023/01/04 02:34:28;;;;;;;9.25;4.40;;;;;;;6.42;64.71;100746.31;10332648;28;20053;-61
2023/01/04 02:39:45;;;;;;;8.88;5.10;;;;;;;6.44;64.74;100732.41;10343231;28;20058;-61
2023/01/04 02:44:57;;;;;;;7.72;4.65;;;;;;;6.54;64.94;100732.97;10337531;28;20513;-61
2023/01/04 02:55:19;;;;;;;12.13;5.78;;;;;;;6.63;65.21;100722.28;10346183;28;20414;-61
2023/01/04 03:06:14;;;;;;;11.40;5.20;;;;;;;6.56;65.55;100710.38;10342201;28;20058;-61
2023/01/04 03:06:14;;;;;;;11.93;5.72;;;;;;;6.63;65.94;100697.16;10352821;28;20399;-61
2023/01/04 03:16:41;;;;;;;10.73;5.10;;;;;;;6.52;66.03;100678.44;10354807;28;20550;-61
2023/01/04 03:21:45;;;;;;;9.60;4.95;;;;;;;6.58;66.21;100659.19;10346748;28;20042;-61
2023/01/04 03:37:46;;;;;;;11.82;5.38;;;;;;;6.46;67.60;100641.41;10351284;28;20057;-61
2023/01/04 03:48:58;;;;;;;14.13;6.18;;;;;;;6.50;67.78;100622.22;10351769;28;20046;-61
2023/01/04 03:54:23;;;;;;;11.07;5.25;;;;;;;6.51;67.38;100603.97;10351650;28;20050;-61
2023/01/04 03:59:25;;;;;;;12.95;5.30;;;;;;;6.57;67.15;100589.94;10349181;28;20065;-61
2023/01/04 04:09:47;;;;;;;13.70;5.03;;;;;;;6.58;67.46;100579.50;10343421;28;20052;-61
2023/01/04 04:14:49;;;;;;;10.38;4.55;;;;;;;6.54;67.34;100571.84;10345463;28;20270;-61
2023/01/04 04:19:50;;;;;;;9.48;4.50;;;;;;;6.58;67.43;100560.44;10345897;28;20061;-61
2023/01/04 04:24:52;;;;;;;9.23;4.38;;;;;;;6.72;67.14;100566.03;10343863;28;20054;-61
2023/01/04 04:29:53;;;;;;;9.00;4.65;;;;;;;6.83;66.62;100554.38;10340129;28;20041;-61
2023/01/04 04:34:55;;;;;;;8.93;4.35;;;;;;;6.94;66.55;100559.19;10341010;28;20052;-61
2023/01/04 04:39:57;;;;;;;8.55;4.35;;;;;;;6.91;66.60;100554.09;10342243;28;20049;-61
2023/01/04 04:44:59;;;;;;;8.57;4.03;;;;;;;6.90;66.35;100536.78;10341062;28;20083;-61
2023/01/04 04:50:01;;;;;;;9.85;4.20;;;;;;;6.98;66.32;100526.97;10344415;28;20848;-61
2023/01/04 04:55:04;;;;;;;9.23;4.00;;;;;;;6.99;66.18;100541.69;10344437;28;20141;-62
2023/01/04 05:00:07;;;;;;;7.78;3.50;;;;;;;6.94;66.15;100525.38;10340358;28;20054;-61
2023/01/04 05:05:08;;;;;;;7.03;3.47;;;;;;;6.95;66.45;100529.69;10343722;28;20469;-61
2023/01/04 05:10:10;;;;;;;9.57;4.05;;;;;;;6.91;66.78;100515.09;10342378;28;20491;-61
2023/01/04 05:15:12;;;;;;;8.70;3.78;;;;;;;6.98;66.52;100511.38;10338099;28;20050;-61
2023/01/04 05:20:13;;;;;;;7.97;4.28;;;;;;;7.01;66.27;100506.94;10341218;28;20050;-62
2023/01/04 05:25:15;;;;;;;7.63;3.80;;;;;;;6.89;66.53;100494.38;10342460;28;20054;-62
2023/01/04 05:35:38;;;;;;;9.35;4.32;;;;;;;7.08;66.38;100502.34;10342115;28;20061;-61
2023/01/04 05:40:40;;;;;;;8.38;4.25;;;;;;;7.18;66.32;100514.13;10340672;28;20054;-62
2023/01/04 05:45:43;;;;;;;8.73;3.65;;;;;;;7.17;66.55;100497.66;10340972;28;20062;-62
2023/01/04 05:50:45;;;;;;;7.10;3.40;;;;;;;7.17;66.83;100473.38;10342869;28;20060;-62
2023/01/04 05:55:47;;;;;;;8.27;3.22;;;;;;;7.19;67.05;100490.66;10342410;28;20042;-62
2023/01/04 06:00:49;;;;;;;7.00;3.20;;;;;;;7.13;67.35;100490.88;10340154;28;20064;-62
2023/01/04 06:05:51;;;;;;;5.30;3.17;;;;;;;7.22;67.39;100481.88;10339307;28;20490;-61
2023/01/04 06:10:53;;;;;;;6.00;3.10;;;;;;;7.17;67.65;100465.59;10335101;28;20060;-61
2023/01/04 06:15:55;;;;;;;4.90;2.65;;;;;;;7.19;67.78;100440.38;10340010;28;20149;-61
2023/01/04 06:20:56;;;;;;;6.03;2.85;;;;;;;7.27;67.59;100440.06;10343565;28;20049;-61
2023/01/04 06:25:58;;;;;;;5.43;2.60;;;;;;;7.29;67.68;100446.06;10348929;28;20115;-61
2023/01/04 06:31:07;;;;;;;4.68;2.38;;;;;;;7.36;67.49;100457.94;10343799;28;20041;-61
2023/01/04 06:36:09;;;;;;;4.95;2.50;;;;;;;7.40;67.28;100447.38;10342612;28;20417;-61
2023/01/04 06:41:20;;;;;;;6.07;2.63;;;;;;;7.50;67.11;100433.09;10351255;28;20057;-62
2023/01/04 06:46:22;;;;;;;5.50;2.95;;;;;;;7.55;67.04;100417.28;10348516;28;20050;-62
2023/01/04 06:51:24;;;;;;;4.35;2.10;;;;;;;7.55;67.23;100428.53;10349946;28;20135;-62
2023/01/04 06:56:26;;;;;;;4.93;2.50;;;;;;;7.67;67.26;100411.59;10347313;28;20054;-62
2023/01/04 07:01:28;;;;;;;4.38;1.98;;;;;;;7.66;66.72;100400.34;10347488;28;20069;-61
2023/01/04 07:06:30;;;;;;;3.83;1.80;;;;;;;7.77;66.65;100405.94;10349001;28;20053;-61
2023/01/04 07:11:31;;;;;;;4.07;1.60;;;;;;;7.83;66.39;100405.69;10348165;28;20050;-61
2023/01/04 07:16:33;;;;;;;4.00;1.95;;;;;;;7.83;66.55;100420.47;10346997;28;20844;-61
2023/01/04 07:21:34;;;;;;;4.05;1.40;;;;;;;7.87;66.32;100422.06;10348308;28;20054;-62
2023/01/04 07:26:36;;;;;;;2.58;1.60;;;;;;;7.89;66.21;100436.72;10346692;28;20046;-62
2023/01/04 07:31:38;;;;;;;2.78;1.30;;;;;;;7.98;66.18;100409.41;10340414;28;20052;-62
2023/01/04 07:36:40;;;;;;;2.35;1.40;;;;;;;8.00;66.11;100431.88;10337441;28;20081;-62
2023/01/04 07:41:41;;;;;;;1.80;1.17;;;;;;;7.90;66.06;100434.94;10343479;28;20129;-62
2023/01/04 07:46:43;;;;;;;2.65;1.20;;;;;;;8.07;65.91;100423.81;10341789;28;20417;-62
2023/01/04 07:51:46;;;;;;;1.90;1.20;;;;;;;8.16;65.67;100418.28;10345178;28;20136;-62
2023/01/04 07:56:49;;;;;;;2.53;1.20;;;;;;;8.11;65.83;100394.16;10337389;28;20296;-62
2023/01/04 08:01:50;;;;;;;2.65;1.25;;;;;;;8.13;65.72;100377.56;10342040;28;20057;-62
2023/01/04 08:06:52;;;;;;;3.95;1.30;;;;;;;8.11;65.96;100379.38;10341532;28;20514;-62
2023/01/04 08:11:54;;;;;;;2.60;1.25;;;;;;;8.11;65.76;100386.34;10343600;28;20056;-62
2023/01/04 08:16:55;;;;;;;2.67;1.33;;;;;;;8.19;65.70;100410.31;10342764;28;20037;-62
2023/01/04 08:21:57;;;;;;;1.27;0.93;;;;;;;8.20;65.52;100417.22;10343676;28;20553;-62
2023/01/04 08:26:59;;;;;;;2.17;1.10;;;;;;;8.21;65.53;100426.72;10340418;28;20725;-62
2023/01/04 08:32:01;;;;;;;2.78;1.13;;;;;;;8.23;65.66;100437.94;10338423;28;20089;-62
2023/01/04 08:37:02;;;;;;;1.88;1.00;;;;;;;8.36;65.50;100421.72;10338771;28;20061;-62
2023/01/04 08:42:04;;;;;;;5.95;1.55;;;;;;;8.45;65.23;100421.31;10340940;28;20046;-61
2023/01/04 08:47:21;;;;;;;1.55;1.10;;;;;;;8.49;65.14;100417.66;10338100;28;20054;-61
2023/01/04 08:52:23;;;;;;;2.90;1.30;;;;;;;8.58;65.02;100400.78;10337338;28;20061;-61
2023/01/04 08:57:24;;;;;;;1.88;1.10;;;;;;;8.65;64.79;100408.25;10338630;28;20053;-61
2023/01/04 09:02:27;;;;;;;5.43;1.40;;;;;;;8.67;64.57;100406.41;10339892;28;20050;-61
2023/01/04 09:07:30;;;;;;;2.40;1.50;;;;;;;8.69;64.84;100391.56;10334039;28;20046;-61
2023/01/04 09:12:31;;;;;;;4.28;1.50;;;;;;;8.71;64.70;100392.34;10336383;28;20049;-61
2023/01/04 09:17:33;;;;;;;2.65;1.30;;;;;;;8.67;64.83;100377.75;10331270;28;20042;-61
2023/01/04 09:22:35;;;;;;;1.83;1.10;;;;;;;8.71;64.90;100392.34;10332296;28;20053;-61
2023/01/04 09:27:38;;;;;;;3.70;1.30;;;;;;;8.78;64.79;100387.69;10327696;28;20272;-61
2023/01/04 09:32:40;;;;;;;1.77;1.10;;;;;;;8.87;64.70;100384.69;10331905;28;20065;-61
2023/01/04 09:37:42;;;;;;;1.75;1.20;;;;;;;8.96;64.63;100388.63;10333465;28;20048;-61
2023/01/04 09:42:44;;;;;;;2.17;1.02;;;;;;;9.04;64.43;100387.34;10341213;28;20785;-61
2023/01/04 09:47:56;;;;;;;2.75;1.20;;;;;;;9.08;64.25;100381.06;10342262;28;20061;-61
2023/01/04 09:53:17;;;;;;;2.38;1.13;;;;;;;9.20;64.14;100374.47;10338944;28;20045;-61
2023/01/04 09:58:21;;;;;;;;;;;;;;;8.89;64.98;100375.03;10346476;28;20065;-61
2023/01/04 10:03:30;;;;;;;1.42;0.93;;;;;;;9.12;64.66;100366.97;10347491;28;19925;-62
2023/01/04 10:08:31;;;;;;;2.58;0.93;;;;;;;9.31;64.38;100351.28;10349296;28;20444;-62
2023/01/04 10:13:47;;;;;;;2.10;0.90;;;;;;;9.34;63.89;100349.38;10350078;28;20454;-62
2023/01/04 10:19:17;;;;;;;1.35;0.80;;;;;;;9.35;63.75;100350.22;10344859;28;20413;-61
2023/01/04 10:24:50;;;;;;;0.82;0.80;;;;;;;9.45;63.89;100330.59;10349369;28;20127;-61
2023/01/04 10:30:05;;;;;;;1.42;0.90;;;;;;;9.55;63.75;100326.59;10344257;28;20057;-62
2023/01/04 10:35:26;;;;;;;1.30;0.80;;;;;;;9.60;63.41;100335.06;10349342;28;20135;-61
2023/01/04 10:40:30;;;;;;;1.40;0.90;;;;;;;9.71;63.46;100324.13;10349321;28;20365;-62
2023/01/04 10:45:55;;;;;;;1.40;0.80;;;;;;;9.85;63.19;100327.72;10348437;28;20712;-62
2023/01/04 10:51:02;;;;;;;1.27;0.70;;;;;;;9.87;63.30;100293.69;10350226;28;20732;-62
2023/01/04 10:56:37;;;;;;;1.50;0.80;;;;;;;9.96;62.79;100303.66;10349503;28;20054;-62
2023/01/04 11:01:58;;;;;;;1.50;0.80;;;;;;;9.92;62.95;100302.97;10359409;28;20062;-62
2023/01/04 11:07:16;;;;;;;1.15;0.80;;;;;;;9.99;63.14;100295.69;10345272;28;20050;-62
2023/01/04 11:12:20;;;;;;;2.00;0.80;;;;;;;10.08;63.20;100282.13;10345213;28;20050;-61
2023/01/04 11:17:23;;;;;;;1.20;0.80;;;;;;;10.24;62.78;100277.78;10345995;28;20056;-62
2023/01/04 11:22:52;;;;;;;1.25;0.70;;;;;;;10.22;62.59;100277.00;10346263;28;20064;-62
2023/01/04 11:28:00;;;;;;;0.85;0.60;;;;;;;10.46;62.44;100271.31;10344192;28;20058;-61
2023/01/04 11:33:13;;;;;;;2.17;0.75;;;;;;;10.49;62.00;100254.63;10343833;28;20061;-62
2023/01/04 11:38:16;;;;;;;1.83;0.90;;;;;;;10.56;62.33;100244.69;10347674;28;20057;-61
2023/01/04 11:43:19;;;;;;;2.72;0.93;;;;;;;10.53;62.30;100235.22;10341140;28;20045;-62
2023/01/04 11:48:51;;;;;;;1.33;0.82;;;;;;;10.31;62.66;100222.50;10346140;28;20054;-62
2023/01/04 11:54:12;;;;;;;0.80;0.80;;;;;;;10.40;62.59;100213.28;10342880;28;20053;-61
2023/01/04 11:59:16;;;;;;;1.60;1.02;;;;;;;10.38;63.71;100207.28;10346442;28;20525;-61
2023/01/04 12:04:27;;;;;;;1.85;0.95;;;;;;;10.13;64.85;100199.09;10345384;28;20069;-61
2023/01/04 12:09:31;;;;;;;5.35;1.23;;;;;;;10.18;64.96;100207.53;10344768;28;20042;-62
2023/01/04 12:14:36;;;;;;;2.72;1.30;;;;;;;10.08;65.57;100204.56;10341971;28;20054;-61
2023/01/04 12:19:43;;;;;;;3.90;1.30;;;;;;;10.07;65.53;100186.38;10339975;28;20060;-62
2023/01/04 12:24:45;;;;;;;3.90;1.40;;;;;;;10.05;65.64;100168.16;10344720;28;20061;-62
2023/01/04 12:29:47;;;;;;;2.35;1.13;;;;;;;10.36;64.77;100167.31;10339959;28;20057;-62
2023/01/04 12:34:49;;;;;;;3.20;1.40;;;;;;;10.24;64.84;100166.22;10343061;28;20057;-62
2023/01/04 12:39:50;;;;;;;2.33;1.20;;;;;;;10.26;64.79;100156.53;10343115;28;20145;-62
2023/01/04 12:44:52;;;;;;;3.50;1.10;;;;;;;10.37;64.57;100153.34;10341257;28;20157;-62
2023/01/04 12:49:56;;;;;;;2.67;1.40;;;;;;;10.40;64.35;100142.69;10342631;28;20073;-62
2023/01/04 12:55:04;;;;;;;3.28;1.25;;;;;;;10.43;64.19;100134.69;10344330;28;20484;-62
2023/01/04 13:00:07;;;;;;;4.70;1.27;;;;;;;10.52;63.78;100116.69;10343108;28;20533;-62
2023/01/04 13:05:20;;;;;;;1.52;1.00;;;;;;;10.49;63.44;100113.44;10341452;28;20054;-62
2023/01/04 13:10:52;;;;;;;2.25;1.13;;;;;;;10.61;63.43;100110.13;10340508;28;20490;-62
2023/01/04 13:16:07;;;;;;;1.88;1.08;;;;;;;10.66;63.16;100125.56;10339233;28;20061;-62
2023/01/04 13:21:37;;;;;;;1.35;0.90;;;;;;;10.65;62.95;100105.53;10343435;28;20064;-62
2023/01/04 13:26:42;;;;;;;4.22;1.83;;;;;;;10.87;62.78;100117.31;10338720;28;20046;-62
2023/01/04 13:32:02;;;;;;;2.67;1.60;;;;;;;10.76;62.49;100119.72;10341131;28;20053;-62
2023/01/04 13:37:10;;;;;;;2.97;1.60;;;;;;;10.81;62.34;100096.72;10342599;28;20046;-61
2023/01/04 13:42:22;;;;;;;1.92;1.25;;;;;;;10.85;62.28;100085.16;10342643;28;20418;-62
2023/01/04 13:47:24;;;;;;;2.22;0.90;;;;;;;10.72;62.69;100071.13;10331848;28;20061;-62
2023/01/04 13:52:27;;;;;;;0.80;0.73;;;;;;;10.92;62.21;100060.31;10338554;28;20053;-62
2023/01/04 13:57:56;;;;;;;1.13;0.80;;;;;;;10.99;61.99;100064.25;10338168;28;20045;-62
2023/01/04 14:03:21;;;;;;;1.55;0.98;;;;;;;10.97;61.80;100060.88;10337651;28;20053;-62
2023/01/04 14:08:38;;;;;;;1.10;0.70;;;;;;;10.97;62.06;100067.91;10338333;28;20060;-61
2023/01/04 14:13:46;;;;;;;0.70;0.70;;;;;;;11.03;62.12;100081.44;10341015;28;20050;-61
2023/01/04 14:18:47;;;;;;;0.80;0.70;;;;;;;11.03;62.13;100062.31;10340341;28;20046;-62
2023/01/04 14:23:49;;;;;;;0.93;0.60;;;;;;;10.90;62.22;100077.03;10340561;28;20050;-61
2023/01/04 14:28:51;;;;;;;2.10;1.10;;;;;;;10.94;62.26;100079.41;10338530;28;20517;-61
2023/01/04 14:33:53;;;;;;;0.60;0.60;;;;;;;10.86;62.55;100068.53;10339481;28;20639;-62
2023/01/04 14:39:10;;;;;;;0.70;0.68;;;;;;;10.95;62.20;100054.91;10342670;28;20061;-62
2023/01/04 14:44:14;;;;;;;0.50;0.50;;;;;;;10.85;62.25;100064.22;10346798;28;20078;-62
2023/01/04 14:49:18;;;;;;;1.35;0.93;;;;;;;10.65;62.91;100074.16;10343021;28;20061;-62
2023/01/04 14:54:22;;;;;;;5.32;0.85;;;;;;;10.82;62.40;100072.25;10351651;28;20049;-62
2023/01/04 14:59:26;;;;;;;0.95;0.90;;;;;;;10.94;62.34;100073.31;10350906;28;20068;-62
2023/01/04 15:04:27;;;;;;;0.40;0.40;;;;;;;10.89;62.29;100057.88;10350970;28;20050;-62
2023/01/04 15:09:29;;;;;;;1.23;0.80;;;;;;;10.90;62.51;100074.44;10350891;28;20068;-62
2023/01/04 15:14:31;;;;;;;1.73;1.15;;;;;;;10.93;62.26;100082.94;10349921;28;20422;-61
2023/01/04 15:19:33;;;;;;;4.22;1.40;;;;;;;10.93;62.38;100075.06;10350472;28;20060;-62
2023/01/04 15:24:38;;;;;;;1.17;0.80;;;;;;;10.84;62.57;100061.69;10347789;28;20509;-62
2023/01/04 15:29:40;;;;;;;1.00;0.90;;;;;;;10.86;62.33;100052.84;10348688;28;20066;-62
2023/01/04 15:34:41;;;;;;;1.92;1.25;;;;;;;10.76;62.81;100046.47;10330035;28;20050;-62
2023/01/04 15:39:47;;;;;;;2.20;1.30;;;;;;;10.78;62.77;100055.06;10346546;28;20046;-62
2023/01/04 15:44:49;;;;;;;1.67;0.65;;;;;;;10.75;62.80;100047.38;10347639;28;20524;-62
2023/01/04 15:49:50;;;;;;;1.10;1.00;;;;;;;10.73;63.01;100049.25;10347660;28;20589;-62
2023/01/04 15:54:52;;;;;;;1.30;1.10;;;;;;;10.75;62.97;100029.06;10348041;28;20058;-62
2023/01/04 15:59:54;;;;;;;0.55;0.55;;;;;;;10.82;62.85;100035.63;10347383;28;20149;-62
2023/01/04 16:04:55;;;;;;;0.57;0.55;;;;;;;10.67;63.16;100019.97;10346364;28;20054;-62
2023/01/04 16:09:57;;;;;;;1.17;0.88;;;;;;;10.72;63.23;100015.34;10346937;28;20524;-62
2023/01/04 16:14:59;;;;;;;0.70;0.70;;;;;;;10.75;63.28;100008.16;10345999;28;20590;-61
2023/01/04 16:20:01;;;;;;;1.00;0.57;;;;;;;10.78;63.03;100000.13;10347143;28;20050;-61
2023/01/04 16:25:04;;;;;;;0.98;0.82;;;;;;;10.81;62.96;100005.16;10347432;28;20050;-62
2023/01/04 16:30:14;;;;;;;2.58;1.75;;;;;;;10.84;62.90;100007.59;10346078;28;20056;-61
2023/01/04 16:35:16;;;;;;;0.95;0.73;;;;;;;10.79;63.17;99999.19;10346358;28;20145;-61
2023/01/04 16:40:17;;;;;;;2.10;1.00;;;;;;;10.72;63.48;99992.66;10329074;28;20057;-62
2023/01/04 16:45:19;;;;;;;1.77;1.00;;;;;;;10.81;63.31;100002.53;10345260;28;20081;-61
2023/01/04 16:50:21;;;;;;;0.75;0.65;;;;;;;10.79;63.50;100007.03;10345010;28;20225;-61
2023/01/04 16:55:22;;;;;;;1.02;0.80;;;;;;;10.89;63.44;100009.97;10345936;28;20054;-61
2023/01/04 17:00:24;;;;;;;1.20;0.75;;;;;;;10.88;63.43;100001.25;10344590;28;20116;-61
2023/01/04 17:05:26;;;;;;;2.20;1.20;;;;;;;10.90;63.30;100001.16;10342716;28;20050;-61
2023/01/04 17:10:28;;;;;;;0.98;0.60;;;;;;;10.94;63.17;99994.81;10345403;28;20060;-61
2023/01/04 17:15:30;;;;;;;1.17;0.70;;;;;;;10.91;63.69;99998.44;10342609;28;20065;-61
2023/01/04 17:20:51;;;;;;;1.25;0.77;;;;;;;10.92;63.83;100008.00;10344614;28;20093;-61
2023/01/04 17:25:54;;;;;;;0.95;0.60;;;;;;;10.88;64.19;100005.66;10345317;28;20050;-61
2023/01/04 17:30:56;;;;;;;1.02;0.73;;;;;;;10.98;63.72;99991.94;10343390;28;20446;-61
2023/01/04 17:36:02;;;;;;;1.63;1.10;;;;;;;10.96;64.11;100001.63;10343759;28;20060;-61
2023/01/04 17:41:11;;;;;;;0.98;0.77;;;;;;;10.93;64.42;99999.19;10344918;28;20050;-61
2023/01/04 17:46:15;;;;;;;1.52;1.00;;;;;;;10.84;64.97;99991.06;10342483;28;20494;-61
2023/01/04 17:51:24;;;;;;;1.17;1.00;;;;;;;10.81;65.28;99986.84;10343585;28;20046;-61
2023/01/04 17:56:28;;;;;;;2.30;1.15;;;;;;;10.77;65.20;99971.41;10340326;28;20139;-60
2023/01/04 18:01:30;;;;;;;0.70;0.70;;;;;;;10.64;65.54;99968.72;10337909;28;20053;-61
2023/01/04 18:06:34;;;;;;;0.70;0.70;;;;;;;10.60;65.84;99969.84;10339665;28;20053;-61
2023/01/04 18:11:36;;;;;;;0.50;0.50;;;;;;;10.79;65.39;99972.16;10335026;28;20054;-61
2023/01/04 18:16:54;;;;;;;1.10;1.00;;;;;;;10.84;65.10;99991.06;10342419;28;20057;-61
2023/01/04 18:21:58;;;;;;;1.30;1.02;;;;;;;10.97;64.92;99987.59;10343485;28;20041;-60
2023/01/04 18:27:00;;;;;;;1.50;1.10;;;;;;;10.96;64.89;99990.31;10347920;28;20061;-60
2023/01/04 18:32:23;;;;;;;1.90;1.27;;;;;;;10.90;65.12;99988.94;10347015;28;20089;-60
2023/01/04 18:37:25;;;;;;;3.15;2.33;;;;;;;10.98;65.03;99994.53;10346465;28;20728;-60
2023/01/04 18:42:27;;;;;;;5.80;3.60;;;;;;;10.87;65.63;99965.56;10343703;28;20537;-60
2023/01/04 18:47:29;;;;;;;0.80;0.80;;;;;;;10.94;65.56;99987.81;10346050;28;20056;-60
2023/01/04 18:52:31;;;;;;;1.40;1.20;;;;;;;10.90;65.79;99991.53;10344823;28;20453;-61
2023/01/04 18:57:33;;;;;;;1.08;1.00;;;;;;;10.80;66.44;99995.66;10346894;28;20061;-61
2023/01/04 19:02:35;;;;;;;0.70;0.70;;;;;;;10.75;66.99;100009.91;10347339;28;20045;-61
2023/01/04 19:07:38;;;;;;;1.65;1.20;;;;;;;10.70;67.47;100019.81;10347285;28;20468;-61
2023/01/04 19:12:41;;;;;;;0.98;0.85;;;;;;;10.74;67.18;100019.56;10342285;28;20061;-61
2023/01/04 19:17:42;;;;;;;0.85;0.85;;;;;;;10.82;66.83;100000.78;10347132;28;20050;-61
2023/01/04 19:22:44;;;;;;;2.45;1.40;;;;;;;10.71;66.87;99996.19;10349281;28;20137;-61
2023/01/04 19:27:45;;;;;;;1.05;0.80;;;;;;;10.68;67.25;99985.06;10347795;28;20057;-61
2023/01/04 19:32:47;;;;;;;3.35;1.98;;;;;;;10.73;67.13;99999.53;10346356;28;20061;-61
2023/01/04 19:37:49;;;;;;;3.88;1.90;;;;;;;10.77;67.25;100031.59;10348281;28;20054;-61
2023/01/04 19:42:51;;;;;;;2.60;1.67;;;;;;;10.81;67.22;100044.41;10345906;28;20042;-61
2023/01/04 19:47:52;;;;;;;4.20;1.90;;;;;;;10.73;67.50;100051.88;10377213;28;20486;-61
2023/01/04 19:52:54;;;;;;;3.67;1.70;;;;;;;10.82;67.27;100046.09;10347578;28;20054;-61
2023/01/04 19:57:56;;;;;;;7.50;4.20;;;;;;;10.75;67.16;100010.75;10345146;28;20041;-61
2023/01/04 20:02:57;;;;;;;4.35;2.30;;;;;;;10.56;67.62;99986.63;10346259;28;20410;-61
2023/01/04 20:07:59;;;;;;;9.45;2.33;;;;;;;10.68;67.45;100013.84;10347624;28;20057;-61
2023/01/04 20:13:01;;;;;;;3.63;1.25;;;;;;;10.78;67.24;100023.66;10347565;28;20060;-60
2023/01/04 20:18:02;;;;;;;4.25;2.03;;;;;;;10.88;67.12;99998.66;10347018;28;20104;-62
2023/01/04 20:23:13;;;;;;;3.83;2.10;;;;;;;10.90;67.33;100001.16;10344652;28;20050;-61
2023/01/04 20:28:16;;;;;;;4.70;3.30;;;;;;;10.90;67.35;100009.84;10343157;28;20049;-61
2023/01/04 20:33:17;;;;;;;6.95;2.33;;;;;;;10.99;66.77;100022.38;10343661;28;20042;-61
2023/01/04 20:38:19;;;;;;;3.05;1.35;;;;;;;11.04;66.33;100015.13;10348128;28;20056;-61
2023/01/04 20:43:33;;;;;;;4.75;1.48;;;;;;;11.10;65.89;99996.44;10345000;28;20053;-61
2023/01/04 20:48:35;;;;;;;7.47;2.15;;;;;;;11.17;65.12;100005.59;10344216;28;20046;-61
2023/01/04 20:53:37;;;;;;;7.00;1.95;;;;;;;11.15;64.89;100009.25;10343581;28;20054;-61
2023/01/04 20:58:38;;;;;;;10.55;5.20;;;;;;;11.25;64.13;100010.38;10342405;28;20541;-60
2023/01/04 21:03:40;;;;;;;10.15;5.40;;;;;;;11.32;63.52;100013.47;10344469;28;20060;-61
2023/01/04 21:08:43;;;;;;;5.53;2.63;;;;;;;11.37;63.38;100008.78;10339880;28;20089;-61
2023/01/04 21:13:46;;;;;;;6.05;2.10;;;;;;;11.38;63.38;100008.66;10340239;28;20042;-61
2023/01/04 21:18:47;;;;;;;6.82;2.15;;;;;;;11.35;63.50;99998.41;10340655;28;20045;-61
2023/01/04 21:23:50;;;;;;;6.22;1.80;;;;;;;11.34;63.38;99998.50;10341005;28;20427;-60
2023/01/04 21:28:58;;;;;;;5.85;1.80;;;;;;;11.36;62.83;99989.59;10343236;28;20473;-60
2023/01/04 21:34:00;;;;;;;5.28;1.73;;;;;;;11.28;62.76;99987.47;10341829;28;20046;-60
2023/01/04 21:39:01;;;;;;;7.03;1.63;;;;;;;11.25;62.52;99978.97;10339945;28;20069;-60
2023/01/04 21:44:03;;;;;;;6.03;1.40;;;;;;;11.16;62.66;99980.38;10341464;28;20053;-60
2023/01/04 21:49:05;;;;;;;7.25;1.52;;;;;;;11.22;62.61;99982.59;10343572;28;20054;-60
2023/01/04 21:54:07;;;;;;;6.43;1.70;;;;;;;11.35;62.49;99987.09;10341272;28;21216;-60
2023/01/04 21:59:08;;;;;;;5.88;1.50;;;;;;;11.30;63.29;99996.06;10341773;28;20057;-60
2023/01/04 22:04:10;;;;;;;5.97;1.30;;;;;;;11.11;64.14;99986.81;10341661;28;20050;-60
2023/01/04 22:09:12;;;;;;;8.23;1.73;;;;;;;11.13;64.00;100004.09;10341835;28;20147;-60
2023/01/04 22:14:13;;;;;;;6.32;1.33;;;;;;;11.01;64.53;100004.81;10336843;28;20548;-60
2023/01/04 22:19:15;;;;;;;5.05;1.60;;;;;;;11.03;65.19;100012.59;10342303;28;20194;-60
2023/01/04 22:24:16;;;;;;;4.55;1.60;;;;;;;11.09;64.91;100007.00;10340296;28;20414;-60
2023/01/04 22:29:19;;;;;;;4.72;1.45;;;;;;;10.94;65.85;100002.66;10341263;28;20633;-60
2023/01/04 22:34:23;;;;;;;3.67;1.23;;;;;;;10.95;66.19;99999.94;10340798;28;20050;-60
2023/01/04 22:39:25;;;;;;;2.97;1.10;;;;;;;10.95;66.44;100009.59;10341460;28;20056;-60
2023/01/04 22:44:26;;;;;;;3.78;1.30;;;;;;;11.02;66.28;99982.94;10339945;28;20053;-60
2023/01/04 22:49:28;;;;;;;2.55;1.10;;;;;;;11.05;66.47;99972.31;10341632;28;20053;-59
2023/01/04 22:54:31;;;;;;;3.60;1.40;;;;;;;11.04;66.44;99982.88;10341077;28;20042;-60
2023/01/04 22:59:33;;;;;;;4.43;1.40;;;;;;;11.06;66.81;99991.47;10341246;28;20084;-60
2023/01/04 23:04:35;;;;;;;4.40;1.20;;;;;;;11.02;66.82;99996.03;10346685;28;20410;-60
2023/01/04 23:09:36;;;;;;;3.15;1.20;;;;;;;11.05;66.68;99990.63;10341756;28;20514;-60
2023/01/04 23:14:38;;;;;;;3.05;1.10;;;;;;;11.25;65.83;99979.78;10346733;28;20414;-60
2023/01/04 23:19:39;;;;;;;3.80;1.10;;;;;;;11.21;66.16;99975.66;10345842;28;20053;-60
2023/01/04 23:24:41;;;;;;;2.40;1.20;;;;;;;11.30;65.88;99977.75;10347036;28;20046;-60
2023/01/04 23:29:43;;;;;;;2.20;0.90;;;;;;;11.29;65.75;99962.94;10347135;28;21294;-60
2023/01/04 23:34:44;;;;;;;2.83;1.15;;;;;;;11.39;65.85;99978.09;10345807;28;20053;-60
2023/01/04 23:39:48;;;;;;;2.15;1.00;;;;;;;11.42;65.46;99989.22;10343428;28;20046;-60
2023/01/04 23:44:49;;;;;;;1.67;0.90;;;;;;;11.37;65.58;99966.88;10346475;28;20410;-60
2023/01/04 23:49:51;;;;;;;2.75;1.10;;;;;;;11.40;65.63;99966.72;10345903;28;20061;-60
2023/01/04 23:54:53;;;;;;;2.58;1.00;;;;;;;11.34;65.68;99967.09;10343646;28;20046;-60
2023/01/04 23:59:54;;;;;;;1.70;0.80;;;;;;;11.39;65.05;99972.88;10345969;28;20053;-60
